Time;durP1;ratioP1;P1;durP2;ratioP2;P2;SDS_P1;SDS_P2;PMS_P1;PMS_P2;Temp;Humidity;BMP_temperature;BMP_pressure;BME280_temperature;BME280_humidity;BME280_pressure;Samples;Min_cycle;Max_cycle;Signal;HPM_P1;HPM_P2
2022/10/13 00:00:33;;;;;;;20.05;9.85;;;;;;;11.23;100.00;101961.91;5027455;28;20033;-67
2022/10/13 00:03:02;;;;;;;23.55;10.52;;;;;;;11.18;100.00;101951.44;5027348;28;20080;-67
2022/10/13 00:05:29;;;;;;;20.98;10.20;;;;;;;11.17;100.00;101952.31;5026636;28;20022;-66
2022/10/13 00:07:54;;;;;;;21.90;10.20;;;;;;;11.17;100.00;101948.81;5026329;28;20063;-66
2022/10/13 00:10:19;;;;;;;22.45;10.77;;;;;;;11.17;100.00;101943.53;5027068;28;20021;-66
2022/10/13 00:12:45;;;;;;;23.90;11.15;;;;;;;11.16;100.00;101952.34;5026734;28;20041;-66
2022/10/13 00:15:10;;;;;;;19.60;10.18;;;;;;;11.15;100.00;101953.25;5027296;28;20025;-66
2022/10/13 00:17:36;;;;;;;17.38;10.13;;;;;;;11.14;100.00;101948.88;5026963;28;20044;-66
2022/10/13 00:20:03;;;;;;;20.02;11.35;;;;;;;11.12;100.00;101944.50;5026580;28;20393;-66
2022/10/13 00:22:28;;;;;;;21.67;11.13;;;;;;;11.16;100.00;101949.69;5025102;28;20487;-66
2022/10/13 00:24:53;;;;;;;20.88;10.95;;;;;;;11.16;100.00;101947.06;5027664;28;20053;-66
2022/10/13 00:27:19;;;;;;;28.63;13.30;;;;;;;11.21;100.00;101947.84;5025696;28;20479;-67
2022/10/13 00:29:44;;;;;;;22.40;11.73;;;;;;;11.17;100.00;101938.25;5027331;28;20472;-67
2022/10/13 00:32:10;;;;;;;26.38;12.93;;;;;;;11.12;100.00;101947.13;5025808;28;20344;-66
2022/10/13 00:34:36;;;;;;;23.65;12.00;;;;;;;11.11;100.00;101940.09;5026829;28;20033;-66
2022/10/13 00:37:02;;;;;;;24.00;11.90;;;;;;;11.21;100.00;101940.81;5025925;28;20117;-66
2022/10/13 00:39:27;;;;;;;22.58;11.93;;;;;;;11.26;100.00;101940.75;5026432;28;20112;-66
2022/10/13 00:41:53;;;;;;;28.23;11.68;;;;;;;11.30;100.00;101938.88;5027410;28;20022;-66
2022/10/13 00:44:56;;;;;;;27.95;13.02;;;;;;;11.36;100.00;101937.03;5025712;28;20425;-66
2022/10/13 00:47:21;;;;;;;22.58;12.18;;;;;;;11.41;100.00;101942.19;5027097;28;20072;-65
2022/10/13 00:49:48;;;;;;;21.50;10.93;;;;;;;11.48;100.00;101943.81;5026861;28;20125;-67
2022/10/13 00:52:14;;;;;;;21.88;11.30;;;;;;;11.58;100.00;101949.78;5023654;28;20034;-65
2022/10/13 00:54:39;;;;;;;24.20;11.98;;;;;;;11.62;100.00;101946.16;5025808;28;20091;-66
2022/10/13 00:57:05;;;;;;;19.30;10.93;;;;;;;11.67;100.00;101942.56;5026603;28;20032;-66
2022/10/13 00:59:30;;;;;;;25.08;11.35;;;;;;;11.71;100.00;101944.25;5027839;28;20603;-66
2022/10/13 01:01:57;;;;;;;18.52;11.50;;;;;;;11.72;100.00;101945.97;5027125;28;20532;-65
2022/10/13 01:04:25;;;;;;;24.55;11.02;;;;;;;11.73;100.00;101945.94;5025884;28;20689;-65
2022/10/13 01:06:53;;;;;;;20.57;11.40;;;;;;;11.82;100.00;101944.88;5025143;28;20566;-65
2022/10/13 01:09:18;;;;;;;19.33;10.98;;;;;;;11.90;100.00;101952.66;5026059;28;20101;-66
2022/10/13 01:12:18;;;;;;;20.38;12.05;;;;;;;11.91;100.00;101950.84;5026724;28;20473;-66
2022/10/13 01:14:45;;;;;;;14.98;10.30;;;;;;;11.96;100.00;101952.53;5025829;28;20033;-66
2022/10/13 01:17:35;;;;;;;31.10;12.50;;;;;;;11.99;100.00;101941.00;5025480;28;20071;-66
2022/10/13 01:20:38;;;;;;;20.58;10.95;;;;;;;11.96;100.00;101938.44;5027035;28;20109;-66
2022/10/13 01:23:15;;;;;;;23.73;11.50;;;;;;;11.96;100.00;101933.16;5026738;28;20030;-66
2022/10/13 01:26:18;;;;;;;16.45;10.65;;;;;;;11.93;100.00;101912.09;5027312;28;20128;-67
2022/10/13 01:29:08;;;;;;;24.23;12.43;;;;;;;11.92;100.00;101902.44;5028877;28;20057;-66
2022/10/13 01:31:36;;;;;;;22.45;11.20;;;;;;;11.90;100.00;101915.66;5030216;28;20045;-66
2022/10/13 01:34:14;;;;;;;22.13;12.30;;;;;;;11.87;100.00;101921.88;5027402;28;20079;-66
2022/10/13 01:36:57;;;;;;;23.48;12.15;;;;;;;11.83;100.00;101924.63;5010186;28;20029;-66
2022/10/13 01:39:30;;;;;;;20.42;12.27;;;;;;;11.84;100.00;101929.00;5009993;28;20068;-65
2022/10/13 01:42:04;;;;;;;25.42;12.02;;;;;;;11.85;100.00;101933.38;5010744;28;20033;-66
2022/10/13 01:44:36;;;;;;;23.40;11.85;;;;;;;11.87;100.00;101935.06;5010799;28;20017;-66
2022/10/13 01:47:02;;;;;;;23.30;12.57;;;;;;;11.88;100.00;101935.94;5009079;28;20021;-67
2022/10/13 01:49:31;;;;;;;24.88;13.23;;;;;;;11.95;100.00;101936.69;5010195;28;20068;-67
2022/10/13 01:51:58;;;;;;;;;;;;;;;11.97;100.00;101935.75;5025302;28;20017;-65
2022/10/13 01:54:24;;;;;;;26.67;12.93;;;;;;;12.01;100.00;101928.63;5009752;28;19914;-66
2022/10/13 01:56:53;;;;;;;23.65;12.77;;;;;;;12.03;100.00;101920.66;5010357;28;20037;-66
2022/10/13 01:59:18;;;;;;;;;;;;;;;11.99;100.00;101919.88;5040526;28;20021;-67
2022/10/13 02:02:01;;;;;;;23.65;13.80;;;;;;;11.97;100.00;101914.63;5027785;28;19909;-66
2022/10/13 02:04:51;;;;;;;25.77;14.00;;;;;;;11.97;100.00;101874.13;5027345;28;20137;-66
2022/10/13 02:07:23;;;;;;;30.35;13.85;;;;;;;11.88;100.00;101868.16;5027717;28;20615;-66
2022/10/13 02:10:19;;;;;;;29.45;14.73;;;;;;;11.83;100.00;101875.31;5028682;28;20026;-66
2022/10/13 02:12:50;;;;;;;31.80;14.07;;;;;;;11.85;100.00;101876.16;5023079;28;20073;-65
2022/10/13 02:15:20;;;;;;;31.73;15.23;;;;;;;11.81;100.00;101877.13;5028872;28;20048;-67
2022/10/13 02:17:45;;;;;;;34.40;15.60;;;;;;;11.76;100.00;101881.63;5027830;28;20017;-66
2022/10/13 02:20:12;;;;;;;26.35;14.60;;;;;;;11.75;100.00;101872.00;5029480;28;20028;-66
2022/10/13 02:22:42;;;;;;;29.60;15.27;;;;;;;11.71;100.00;101865.91;5027478;28;20333;-66
2022/10/13 02:25:07;;;;;;;25.98;14.93;;;;;;;11.68;100.00;101873.88;5029157;28;20035;-67
2022/10/13 02:27:33;;;;;;;29.33;15.85;;;;;;;11.66;100.00;101880.97;5030433;28;20029;-66
2022/10/13 02:29:58;;;;;;;29.00;16.33;;;;;;;11.63;100.00;101879.25;5029989;28;20013;-66
2022/10/13 02:32:24;;;;;;;32.25;16.85;;;;;;;11.63;100.00;101881.03;5029819;28;20101;-67
2022/10/13 02:34:49;;;;;;;37.58;15.15;;;;;;;11.67;100.00;101877.44;5029845;28;20040;-66
2022/10/13 02:37:15;;;;;;;33.28;16.42;;;;;;;11.72;100.00;101872.94;5030840;28;20067;-66
2022/10/13 02:39:40;;;;;;;31.13;16.27;;;;;;;11.72;100.00;101867.66;5029828;28;20037;-67
2022/10/13 02:42:06;;;;;;;27.27;16.08;;;;;;;11.72;100.00;101869.41;5028091;28;20038;-66
2022/10/13 02:44:32;;;;;;;29.45;14.93;;;;;;;11.78;100.00;101861.34;5041062;28;20029;-66
2022/10/13 02:46:57;;;;;;;32.45;16.35;;;;;;;11.78;100.00;101864.00;5048342;28;20054;-66
2022/10/13 02:49:22;;;;;;;31.88;15.90;;;;;;;11.83;100.00;101862.09;5044937;28;20067;-67
2022/10/13 02:51:48;;;;;;;27.67;17.02;;;;;;;11.83;100.00;101866.53;5047674;28;20163;-66
2022/10/13 02:54:13;;;;;;;31.77;17.55;;;;;;;11.86;100.00;101859.41;5046208;28;20036;-66
2022/10/13 02:56:38;;;;;;;26.33;16.95;;;;;;;11.88;100.00;101860.25;5048364;28;20482;-67
2022/10/13 02:59:04;;;;;;;31.90;16.92;;;;;;;11.94;100.00;101861.88;5049034;28;20036;-67
2022/10/13 03:01:29;;;;;;;30.23;15.82;;;;;;;11.96;100.00;101848.63;5046371;28;20020;-67
2022/10/13 03:03:54;;;;;;;29.42;17.05;;;;;;;11.99;100.00;101856.47;5028644;28;20603;-67
2022/10/13 03:06:20;;;;;;;30.05;16.35;;;;;;;12.02;100.00;101853.78;5027527;28;20044;-67
2022/10/13 03:08:45;;;;;;;31.17;16.10;;;;;;;12.04;100.00;101851.94;5028611;28;20129;-67
2022/10/13 03:11:11;;;;;;;30.95;16.00;;;;;;;12.10;100.00;101849.19;5028421;28;20028;-66
2022/10/13 03:13:36;;;;;;;29.88;17.33;;;;;;;12.10;100.00;101833.34;5028758;28;20041;-66
2022/10/13 03:16:02;;;;;;;33.83;16.40;;;;;;;12.12;100.00;101830.66;5027530;28;20029;-67
2022/10/13 03:18:27;;;;;;;27.85;15.70;;;;;;;12.11;100.00;101816.59;5028475;28;20104;-66
2022/10/13 03:20:58;;;;;;;30.65;14.75;;;;;;;12.13;100.00;101811.25;5028169;28;20372;-66
2022/10/13 03:23:23;;;;;;;35.28;16.05;;;;;;;12.17;100.00;101825.28;5025980;28;20037;-67
2022/10/13 03:25:48;;;;;;;26.17;15.27;;;;;;;12.12;100.00;101818.34;5027413;28;20392;-66
2022/10/13 03:28:14;;;;;;;30.85;17.23;;;;;;;12.12;100.00;101826.25;5026833;28;20037;-66
2022/10/13 03:30:39;;;;;;;29.35;14.82;;;;;;;12.11;100.00;101821.88;5027708;28;20087;-66
2022/10/13 03:33:04;;;;;;;30.73;16.00;;;;;;;12.12;100.00;101820.97;5027841;28;20025;-67
2022/10/13 03:35:30;;;;;;;33.72;15.57;;;;;;;12.12;100.00;101812.16;5028460;28;20104;-66
2022/10/13 03:37:55;;;;;;;30.30;16.55;;;;;;;12.11;100.00;101811.31;5027268;28;20491;-66
2022/10/13 03:40:20;;;;;;;34.35;16.27;;;;;;;12.10;100.00;101803.44;5027400;28;20052;-67
2022/10/13 03:42:46;;;;;;;29.70;16.75;;;;;;;12.06;100.00;101792.03;5027220;28;20446;-66
2022/10/13 03:45:11;;;;;;;28.88;15.57;;;;;;;12.05;100.00;101782.38;5028103;28;20022;-66
2022/10/13 03:47:36;;;;;;;31.80;16.15;;;;;;;12.06;100.00;101780.59;5027390;28;20076;-66
2022/10/13 03:50:03;;;;;;;29.00;15.98;;;;;;;12.00;100.00;101784.25;5028369;28;20028;-67
2022/10/13 03:52:28;;;;;;;28.75;16.48;;;;;;;11.99;100.00;101782.53;5024973;28;20452;-66
2022/10/13 03:54:54;;;;;;;27.80;17.13;;;;;;;11.92;100.00;101805.56;5027762;28;20033;-67
2022/10/13 03:57:19;;;;;;;30.10;16.58;;;;;;;11.97;100.00;101831.88;5027598;28;20041;-67
2022/10/13 03:59:44;;;;;;;28.00;16.20;;;;;;;12.00;100.00;101818.59;5026321;28;20075;-66
2022/10/13 04:02:10;;;;;;;32.47;16.80;;;;;;;12.03;100.00;101820.28;5027774;28;20431;-68
2022/10/13 04:04:36;;;;;;;31.08;17.52;;;;;;;12.07;100.00;101806.16;5026702;28;20518;-68
2022/10/13 04:07:01;;;;;;;40.30;17.58;;;;;;;12.11;100.00;101808.69;5024652;28;20128;-68
2022/10/13 04:09:27;;;;;;;34.63;16.13;;;;;;;12.11;100.00;101805.16;5025279;28;20109;-67
2022/10/13 04:11:52;;;;;;;29.83;17.55;;;;;;;12.12;100.00;101810.41;5025603;28;20023;-67
2022/10/13 04:14:18;;;;;;;36.33;17.40;;;;;;;12.18;100.00;101817.31;5026774;28;20037;-67
2022/10/13 04:16:44;;;;;;;31.92;16.75;;;;;;;12.18;100.00;101813.78;5026095;28;20029;-66
2022/10/13 04:19:11;;;;;;;28.27;16.25;;;;;;;12.24;100.00;101816.28;5025965;28;20029;-66
2022/10/13 04:21:36;;;;;;;34.83;16.83;;;;;;;12.30;100.00;101821.41;5026410;28;20121;-67
2022/10/13 04:24:02;;;;;;;35.00;17.08;;;;;;;12.29;100.00;101819.69;5027774;28;20021;-67
2022/10/13 04:26:30;;;;;;;30.75;17.08;;;;;;;12.29;100.00;101802.94;5026884;28;20056;-67
2022/10/13 04:28:55;;;;;;;34.15;16.67;;;;;;;12.26;100.00;101809.19;5026601;28;20495;-66
2022/10/13 04:31:22;;;;;;;31.30;15.88;;;;;;;12.28;100.00;101812.66;5025857;28;20048;-66
2022/10/13 04:33:47;;;;;;;34.78;17.48;;;;;;;12.28;100.00;101807.34;5025275;28;20120;-66
2022/10/13 04:36:14;;;;;;;26.52;16.17;;;;;;;12.25;100.00;101813.59;5025659;28;20440;-66
2022/10/13 04:38:40;;;;;;;34.78;16.25;;;;;;;12.28;100.00;101817.94;5026854;28;20025;-66
2022/10/13 04:41:06;;;;;;;28.38;16.35;;;;;;;12.26;100.00;101803.91;5026254;28;20036;-66
2022/10/13 04:43:32;;;;;;;32.80;16.65;;;;;;;12.28;100.00;101796.78;5026938;28;20647;-66
2022/10/13 04:46:20;;;;;;;36.92;16.83;;;;;;;12.24;100.00;101796.03;5026148;28;20431;-66
2022/10/13 04:48:46;;;;;;;35.28;17.00;;;;;;;12.25;100.00;101799.50;5026142;28;20025;-66
2022/10/13 04:51:14;;;;;;;29.83;16.67;;;;;;;12.21;100.00;101806.66;5023226;28;20044;-66
2022/10/13 04:53:40;;;;;;;29.58;15.88;;;;;;;12.24;100.00;101805.72;5025852;28;20104;-66
2022/10/13 04:56:11;;;;;;;37.95;17.45;;;;;;;12.26;100.00;101802.09;5026006;28;20109;-68
2022/10/13 04:58:37;;;;;;;28.58;16.55;;;;;;;12.30;100.00;101802.03;5007060;28;20052;-66
2022/10/13 05:01:04;;;;;;;28.40;16.08;;;;;;;12.30;100.00;101804.69;5013500;28;20436;-67
2022/10/13 05:03:29;;;;;;;37.90;17.63;;;;;;;12.36;100.00;101793.97;5030151;28;20046;-66
2022/10/13 05:05:55;;;;;;;33.60;17.27;;;;;;;12.35;100.00;101798.41;5029187;28;20025;-67
2022/10/13 05:08:20;;;;;;;36.78;17.65;;;;;;;12.39;100.00;101796.53;5030903;28;20100;-67
2022/10/13 05:10:59;;;;;;;33.60;18.60;;;;;;;12.41;100.00;101802.66;5030396;28;20097;-67
2022/10/13 05:13:25;;;;;;;;;;;;;;;12.40;100.00;101805.31;5030751;28;20120;-66
2022/10/13 05:15:50;;;;;;;29.98;16.98;;;;;;;12.42;100.00;101799.09;5028879;28;20336;-65
2022/10/13 05:18:16;;;;;;;34.13;16.63;;;;;;;12.45;100.00;101798.13;5030469;28;20025;-66
2022/10/13 05:20:41;;;;;;;37.80;17.42;;;;;;;12.42;100.00;101798.19;5030180;28;20158;-67
2022/10/13 05:23:07;;;;;;;33.75;16.65;;;;;;;12.41;100.00;101793.84;5028125;28;20037;-67
2022/10/13 05:25:34;;;;;;;36.53;17.45;;;;;;;12.42;100.00;101792.91;5029608;28;20053;-66
2022/10/13 05:27:59;;;;;;;34.35;18.42;;;;;;;12.43;100.00;101799.97;5029140;28;20045;-66
2022/10/13 05:30:25;;;;;;;32.78;17.20;;;;;;;12.40;100.00;101800.88;5030357;28;20029;-67
2022/10/13 05:32:50;;;;;;;32.13;17.02;;;;;;;12.45;100.00;101795.47;5030546;28;20033;-67
2022/10/13 05:35:15;;;;;;;34.38;17.60;;;;;;;12.46;100.00;101794.59;5030326;28;20577;-66
2022/10/13 05:37:41;;;;;;;31.80;16.90;;;;;;;12.47;100.00;101791.91;5029862;28;20087;-67
2022/10/13 05:40:07;;;;;;;40.17;17.90;;;;;;;12.50;100.00;101785.66;5029969;28;20034;-66
2022/10/13 05:42:34;;;;;;;32.10;16.98;;;;;;;12.56;100.00;101790.78;5029378;28;20029;-67
2022/10/13 05:44:59;;;;;;;35.83;17.08;;;;;;;12.56;100.00;101793.44;5030316;28;20063;-67
2022/10/13 05:47:27;;;;;;;35.92;16.70;;;;;;;12.59;100.00;101789.84;5027148;28;20492;-67
2022/10/13 05:49:53;;;;;;;29.17;15.63;;;;;;;12.62;100.00;101782.66;5029473;28;20017;-67
2022/10/13 05:52:19;;;;;;;34.13;17.30;;;;;;;12.61;100.00;101774.78;5027790;28;20022;-67
2022/10/13 05:54:47;;;;;;;25.52;15.88;;;;;;;12.61;100.00;101757.16;5029511;28;20037;-67
2022/10/13 05:57:19;;;;;;;31.15;16.45;;;;;;;12.60;100.00;101739.56;5027631;28;20685;-67
2022/10/13 05:59:49;;;;;;;34.25;17.52;;;;;;;12.56;100.00;101743.22;5028231;28;20464;-67
2022/10/13 06:02:15;;;;;;;29.88;15.77;;;;;;;12.57;100.00;101734.38;5028481;28;20056;-68
2022/10/13 06:04:44;;;;;;;35.55;16.48;;;;;;;12.55;100.00;101736.16;5029355;28;20048;-68
2022/10/13 06:07:10;;;;;;;40.83;17.38;;;;;;;12.51;100.00;101739.81;5028040;28;20164;-68
2022/10/13 06:09:36;;;;;;;34.30;17.10;;;;;;;12.48;100.00;101745.19;5027507;28;20029;-69
2022/10/13 06:12:03;;;;;;;34.38;16.95;;;;;;;12.49;100.00;101750.44;5011576;28;20813;-70
2022/10/13 06:14:28;;;;;;;34.88;17.63;;;;;;;12.52;100.00;101767.97;5028064;28;20033;-69
2022/10/13 06:16:54;;;;;;;36.42;17.75;;;;;;;12.52;100.00;101773.25;5041148;28;20059;-69
2022/10/13 06:19:19;;;;;;;33.05;17.65;;;;;;;12.56;100.00;101769.66;5031530;28;20129;-66
2022/10/13 06:21:44;;;;;;;36.55;18.83;;;;;;;12.53;100.00;101764.44;5026609;28;20440;-67
2022/10/13 06:24:10;;;;;;;41.08;17.60;;;;;;;12.54;100.00;101762.66;5027850;28;20084;-68
2022/10/13 06:26:35;;;;;;;46.08;18.83;;;;;;;12.57;100.00;101770.50;5027701;28;20021;-67
2022/10/13 06:29:01;;;;;;;36.25;19.88;;;;;;;12.60;100.00;101770.41;5028165;28;20091;-70
2022/10/13 06:31:26;;;;;;;40.90;20.60;;;;;;;12.62;100.00;101768.59;5028326;28;20116;-69
2022/10/13 06:33:51;;;;;;;42.05;19.27;;;;;;;12.66;100.00;101772.00;5027609;28;20142;-68
2022/10/13 06:36:17;;;;;;;35.97;19.52;;;;;;;12.62;100.00;101773.91;5027332;28;20040;-67
2022/10/13 06:38:42;;;;;;;31.25;18.60;;;;;;;12.69;100.00;101783.38;5027588;28;20033;-67
2022/10/13 06:41:07;;;;;;;32.28;20.70;;;;;;;12.69;100.00;101786.03;5028396;28;20028;-69
2022/10/13 06:43:33;;;;;;;37.60;20.98;;;;;;;12.70;100.00;101781.63;5028162;28;20028;-67
2022/10/13 06:45:59;;;;;;;40.75;21.45;;;;;;;12.77;100.00;101773.44;5028045;28;20048;-68
2022/10/13 06:48:26;;;;;;;40.17;21.65;;;;;;;12.79;100.00;101770.75;5025464;28;20080;-67
2022/10/13 06:50:51;;;;;;;34.05;20.60;;;;;;;12.82;100.00;101775.13;5027501;28;20041;-66
2022/10/13 06:53:16;;;;;;;38.20;22.80;;;;;;;12.82;100.00;101783.91;5026408;28;20033;-69
2022/10/13 06:55:42;;;;;;;37.20;22.02;;;;;;;12.86;100.00;101782.06;5027179;28;20031;-66
2022/10/13 06:58:08;;;;;;;39.60;23.05;;;;;;;12.91;100.00;101780.13;5027580;28;20060;-72
2022/10/13 07:00:34;;;;;;;36.55;22.92;;;;;;;12.96;100.00;101777.34;5028156;28;20044;-68
2022/10/13 07:02:59;;;;;;;40.88;24.27;;;;;;;12.99;100.00;101770.22;5026142;28;20053;-68
2022/10/13 07:05:24;;;;;;;44.60;25.05;;;;;;;13.01;100.00;101771.00;5027840;28;20021;-67
2022/10/13 07:07:53;;;;;;;38.80;23.00;;;;;;;13.10;100.00;101771.66;5025515;28;20052;-68
2022/10/13 07:10:19;;;;;;;33.85;22.05;;;;;;;13.18;100.00;101766.16;5026869;28;20128;-67
2022/10/13 07:12:44;;;;;;;39.03;23.23;;;;;;;13.23;100.00;101765.09;5025187;28;20520;-69
2022/10/13 07:15:10;;;;;;;38.03;25.33;;;;;;;13.30;100.00;101757.81;5025997;28;20037;-68
2022/10/13 07:17:35;;;;;;;32.78;23.67;;;;;;;13.34;100.00;101766.53;5027183;28;20036;-67
2022/10/13 07:20:02;;;;;;;41.70;24.63;;;;;;;13.37;100.00;101764.66;5027187;28;20476;-67
2022/10/13 07:22:28;;;;;;;35.65;24.27;;;;;;;13.39;100.00;101760.19;5026647;28;20021;-68
2022/10/13 07:24:53;;;;;;;34.30;25.38;;;;;;;13.36;100.00;101762.06;5024052;28;20276;-69
2022/10/13 07:27:18;;;;;;;35.75;24.83;;;;;;;13.43;100.00;101760.09;5026953;28;20041;-67
2022/10/13 07:29:44;;;;;;;32.55;23.75;;;;;;;13.43;100.00;101757.44;5027235;28;20064;-68
2022/10/13 07:32:09;;;;;;;38.15;23.77;;;;;;;13.49;100.00;101758.13;5022550;28;20037;-67
2022/10/13 07:34:34;;;;;;;39.45;23.02;;;;;;;13.47;100.00;101761.72;5026562;28;20467;-67
2022/10/13 07:37:00;;;;;;;35.08;22.38;;;;;;;13.47;100.00;101764.38;5025914;28;20022;-67
2022/10/13 07:39:25;;;;;;;36.13;22.08;;;;;;;13.48;100.00;101763.44;5025364;28;20033;-68
2022/10/13 07:41:50;;;;;;;35.25;21.65;;;;;;;13.54;100.00;101768.59;5026445;28;20025;-68
2022/10/13 07:44:16;;;;;;;36.50;20.95;;;;;;;13.59;100.00;101766.69;5026385;28;20029;-69
2022/10/13 07:46:41;;;;;;;32.30;21.45;;;;;;;13.64;100.00;101756.78;5026185;28;20057;-68
2022/10/13 07:49:07;;;;;;;33.60;20.50;;;;;;;13.70;100.00;101758.38;5026210;28;20120;-68
2022/10/13 07:51:32;;;;;;;35.13;21.00;;;;;;;13.85;100.00;101751.69;5038941;28;20116;-67
2022/10/13 07:53:57;;;;;;;31.45;19.48;;;;;;;14.04;100.00;101761.69;5027696;28;20029;-65
2022/10/13 07:56:24;;;;;;;28.10;18.15;;;;;;;14.30;100.00;101757.25;5024703;28;20131;-65
2022/10/13 07:58:49;;;;;;;27.80;16.70;;;;;;;14.35;100.00;101762.41;5025464;28;20053;-66
2022/10/13 08:01:15;;;;;;;29.02;16.10;;;;;;;14.39;100.00;101754.28;5024348;28;20076;-66
2022/10/13 08:03:40;;;;;;;28.30;16.40;;;;;;;14.36;100.00;101761.50;5026125;28;20469;-66
2022/10/13 08:06:08;;;;;;;25.67;15.93;;;;;;;14.30;100.00;101762.56;5025331;28;20033;-67
2022/10/13 08:08:33;;;;;;;24.77;16.08;;;;;;;14.24;100.00;101761.00;5026924;28;20013;-69
2022/10/13 08:11:04;;;;;;;26.35;15.23;;;;;;;14.17;100.00;101761.28;5026029;28;20169;-68
2022/10/13 08:13:29;;;;;;;25.83;16.52;;;;;;;14.21;100.00;101763.75;5025530;28;20082;-67
2022/10/13 08:15:54;;;;;;;24.80;14.50;;;;;;;14.22;100.00;101756.69;5026865;28;20035;-67
2022/10/13 08:18:20;;;;;;;25.08;15.55;;;;;;;14.19;100.00;101754.13;5028287;28;20022;-70
2022/10/13 08:20:45;;;;;;;31.65;16.33;;;;;;;14.15;100.00;101758.69;5023929;28;20017;-69
2022/10/13 08:23:12;;;;;;;27.48;15.80;;;;;;;14.20;100.00;101755.84;5023777;28;20020;-68
2022/10/13 08:25:41;;;;;;;31.13;15.68;;;;;;;14.20;100.00;101761.16;5025582;28;20022;-67
2022/10/13 08:28:12;;;;;;;;;;;;;;;14.21;100.00;101765.56;5026026;28;20034;-68
2022/10/13 08:30:38;;;;;;;27.83;15.45;;;;;;;14.18;100.00;101768.31;5022553;28;19913;-67
2022/10/13 08:33:03;;;;;;;24.70;16.08;;;;;;;14.21;100.00;101765.56;5026153;28;20484;-68
2022/10/13 08:35:28;;;;;;;28.92;14.95;;;;;;;14.26;100.00;101760.94;5024845;28;20515;-67
2022/10/13 08:37:54;;;;;;;27.60;16.25;;;;;;;14.24;100.00;101758.34;5027468;28;20063;-69
2022/10/13 08:40:21;;;;;;;23.02;15.45;;;;;;;14.20;100.00;101754.09;5028474;28;20112;-70
2022/10/13 08:42:47;;;;;;;30.77;15.20;;;;;;;14.25;100.00;101748.63;5027602;28;20039;-68
2022/10/13 08:45:17;;;;;;;24.98;14.90;;;;;;;14.20;100.00;101740.81;5028124;28;20104;-67
2022/10/13 08:47:50;;;;;;;28.10;15.88;;;;;;;14.31;100.00;101735.16;5030262;28;20125;-67
2022/10/13 08:50:21;;;;;;;28.38;13.52;;;;;;;14.44;100.00;101740.00;5029626;28;20041;-68
2022/10/13 08:52:52;;;;;;;25.05;15.02;;;;;;;14.40;100.00;101736.63;5029334;28;20041;-67
2022/10/13 08:55:34;;;;;;;28.90;14.75;;;;;;;14.32;100.00;101747.47;5031032;28;20376;-67
2022/10/13 08:58:01;;;;;;;22.30;13.52;;;;;;;14.39;100.00;101741.03;5030831;28;20036;-67
2022/10/13 09:00:27;;;;;;;23.23;14.30;;;;;;;14.35;100.00;101757.09;5028002;28;20026;-68
2022/10/13 09:03:16;;;;;;;23.13;15.00;;;;;;;14.27;100.00;101758.25;5029891;28;20064;-68
2022/10/13 09:05:53;;;;;;;22.83;14.13;;;;;;;14.31;100.00;101753.72;5028119;28;20103;-67
2022/10/13 09:08:19;;;;;;;19.65;13.20;;;;;;;14.33;100.00;101756.31;5029154;28;20041;-69
2022/10/13 09:10:46;;;;;;;30.98;13.68;;;;;;;14.34;100.00;101747.44;5028663;28;20472;-68
2022/10/13 09:13:12;;;;;;;19.75;13.10;;;;;;;14.39;100.00;101750.81;5029138;28;20053;-68
2022/10/13 09:15:45;;;;;;;19.13;11.98;;;;;;;14.60;100.00;101754.44;5029308;28;20056;-68
2022/10/13 09:18:12;;;;;;;18.95;12.27;;;;;;;14.90;100.00;101751.63;5028462;28;20049;-67
2022/10/13 09:20:39;;;;;;;25.02;13.55;;;;;;;15.10;100.00;101751.78;5028396;28;20032;-67
2022/10/13 09:23:08;;;;;;;20.27;10.93;;;;;;;15.19;100.00;101748.78;5028634;28;20052;-68
2022/10/13 09:25:42;;;;;;;19.65;11.77;;;;;;;15.32;100.00;101750.97;5028066;28;20025;-69
2022/10/13 09:28:23;;;;;;;20.00;11.68;;;;;;;15.32;100.00;101743.84;5028553;28;20025;-68
2022/10/13 09:31:00;;;;;;;26.00;11.48;;;;;;;15.29;100.00;101747.47;5028329;28;20036;-68
2022/10/13 09:33:26;;;;;;;18.42;12.23;;;;;;;15.32;100.00;101743.00;5027585;28;20059;-67
2022/10/13 09:35:57;;;;;;;24.73;12.55;;;;;;;15.10;100.00;101747.34;5027058;28;20036;-68
2022/10/13 09:38:26;;;;;;;20.42;13.02;;;;;;;15.23;100.00;101746.88;5028068;28;20026;-66
2022/10/13 09:41:05;;;;;;;21.27;13.18;;;;;;;15.13;100.00;101744.56;5024774;28;20029;-67
2022/10/13 09:43:40;;;;;;;;;;;;;;;15.06;100.00;101745.75;5029215;28;20036;-69
2022/10/13 09:46:27;;;;;;;19.92;12.88;;;;;;;15.01;100.00;101747.69;5027853;28;19983;-67
2022/10/13 09:48:55;;;;;;;18.92;13.20;;;;;;;15.13;100.00;101744.56;5025978;28;20539;-67
2022/10/13 09:51:37;;;;;;;27.27;14.43;;;;;;;15.16;100.00;101736.50;5026726;28;20021;-69
2022/10/13 09:54:03;;;;;;;20.33;12.75;;;;;;;15.20;100.00;101739.03;5029117;28;20087;-68
2022/10/13 09:56:35;;;;;;;21.73;12.32;;;;;;;15.22;100.00;101738.03;5028122;28;20028;-66
2022/10/13 09:59:06;;;;;;;18.77;11.95;;;;;;;15.29;100.00;101736.00;5025703;28;20074;-69
2022/10/13 10:01:34;;;;;;;22.08;12.13;;;;;;;15.49;100.00;101739.66;5028538;28;20026;-67
2022/10/13 10:04:03;;;;;;;23.20;11.98;;;;;;;15.56;100.00;101735.81;5028826;28;20048;-67
2022/10/13 10:06:28;;;;;;;25.15;11.88;;;;;;;15.74;100.00;101734.19;5026173;28;20029;-69
2022/10/13 10:08:56;;;;;;;22.20;11.52;;;;;;;15.82;100.00;101731.22;5027213;28;20578;-69
2022/10/13 10:11:34;;;;;;;20.23;10.60;;;;;;;15.91;100.00;101727.31;5026892;28;20083;-68
2022/10/13 10:14:35;;;;;;;17.88;10.25;;;;;;;15.99;100.00;101729.69;5025193;28;20022;-71
2022/10/13 10:17:20;;;;;;;21.02;10.07;;;;;;;15.96;100.00;101735.09;5027245;28;20045;-69
2022/10/13 10:19:56;;;;;;;20.60;9.73;;;;;;;16.16;100.00;101731.59;5022973;28;20141;-69
2022/10/13 10:22:47;;;;;;;21.58;9.73;;;;;;;16.11;100.00;101725.63;5025361;28;20026;-69
2022/10/13 10:25:28;;;;;;;14.07;8.18;;;;;;;16.11;100.00;101722.97;5027323;28;20045;-68
2022/10/13 10:28:29;;;;;;;18.08;8.95;;;;;;;16.08;100.00;101726.63;5030491;28;20640;-68
2022/10/13 10:31:16;;;;;;;19.33;8.68;;;;;;;16.12;100.00;101724.69;5020502;28;20052;-69
2022/10/13 10:34:00;;;;;;;21.02;8.10;;;;;;;16.12;100.00;101722.91;5026084;28;20025;-68
2022/10/13 10:37:10;;;;;;;18.40;7.65;;;;;;;16.17;100.00;101718.22;5027428;28;20025;-68
2022/10/13 10:39:40;;;;;;;20.77;7.90;;;;;;;16.20;100.00;101711.94;5021572;28;20049;-70
2022/10/13 10:42:19;;;;;;;20.05;8.48;;;;;;;16.19;100.00;101714.66;5026290;28;20037;-67
2022/10/13 10:44:46;;;;;;;18.02;7.82;;;;;;;16.04;100.00;101709.94;5027881;28;20079;-67
2022/10/13 10:47:24;;;;;;;18.80;7.72;;;;;;;16.04;100.00;101709.94;5025340;28;20022;-69
2022/10/13 10:49:52;;;;;;;17.55;7.85;;;;;;;15.89;100.00;101703.44;5027159;28;20438;-66
2022/10/13 10:52:30;;;;;;;14.55;7.85;;;;;;;15.89;100.00;101703.44;5025242;28;20044;-70
2022/10/13 10:55:16;;;;;;;22.17;8.45;;;;;;;16.06;100.00;101701.03;5024132;28;20112;-68
2022/10/13 10:57:49;;;;;;;18.10;7.70;;;;;;;16.10;100.00;101706.16;5025577;28;20156;-66
2022/10/13 11:00:18;;;;;;;17.13;7.88;;;;;;;16.31;100.00;101694.66;5025180;28;20479;-68
2022/10/13 11:02:44;;;;;;;;;;;;;;;16.52;100.00;101698.09;5027935;28;20037;-68
2022/10/13 11:05:10;;;;;;;18.00;8.15;;;;;;;16.62;100.00;101690.59;5025451;28;20232;-71
2022/10/13 11:07:56;;;;;;;21.80;8.10;;;;;;;16.62;100.00;101696.75;5008717;28;20037;-68
2022/10/13 11:10:22;;;;;;;16.80;7.63;;;;;;;16.71;100.00;101690.19;5019999;28;20022;-69
2022/10/13 11:12:51;;;;;;;14.00;8.07;;;;;;;16.64;100.00;101689.56;5025895;28;20536;-70